Time;durP1;ratioP1;P1;durP2;ratioP2;P2;SDS_P1;SDS_P2;PMS_P1;PMS_P2;Temp;Humidity;BMP_temperature;BMP_pressure;BME280_temperature;BME280_humidity;BME280_pressure;Samples;Min_cycle;Max_cycle;Signal;HPM_P1;HPM_P2
2021/12/31 00:02:21;;;;;;;13.65;8.10;;;25.50;99.90;;;;;;5015172;28;20029;-68
2021/12/31 00:04:48;;;;;;;16.05;8.20;;;25.40;99.90;;;;;;5015475;28;20248;-67
2021/12/31 00:07:15;;;;;;;9.27;6.78;;;25.50;99.90;;;;;;5015343;28;20104;-67
2021/12/31 00:09:42;;;;;;;12.02;6.88;;;25.50;99.90;;;;;;5015442;28;20046;-67
2021/12/31 00:12:09;;;;;;;66.70;40.13;;;25.50;99.90;;;;;;5015119;28;20038;-67
2021/12/31 00:14:37;;;;;;;23.13;14.85;;;25.60;99.90;;;;;;5015302;28;20022;-67
2021/12/31 00:17:05;;;;;;;11.88;6.50;;;25.50;99.90;;;;;;5015021;28;20026;-65
2021/12/31 00:19:36;;;;;;;61.00;40.97;;;25.50;99.90;;;;;;5014555;28;20387;-66
2021/12/31 00:22:20;;;;;;;19.20;8.68;;;25.50;99.90;;;;;;5013275;28;20030;-69
2021/12/31 00:24:47;;;;;;;14.48;7.97;;;25.50;99.90;;;;;;5014674;28;20113;-68
2021/12/31 00:27:14;;;;;;;10.52;7.30;;;25.70;99.90;;;;;;5014730;28;20497;-67
2021/12/31 00:29:41;;;;;;;11.25;6.25;;;25.60;99.90;;;;;;5015029;28;20041;-68
2021/12/31 00:32:07;;;;;;;23.15;14.00;;;25.60;99.90;;;;;;5014642;28;20493;-68
2021/12/31 00:34:34;;;;;;;17.67;12.48;;;25.70;99.90;;;;;;5015658;28;20430;-68
2021/12/31 00:37:01;;;;;;;18.23;11.73;;;25.70;99.90;;;;;;5015464;28;20025;-68
2021/12/31 00:39:27;;;;;;;15.18;10.57;;;25.80;99.90;;;;;;5015552;28;20036;-71
2021/12/31 00:41:54;;;;;;;21.23;12.50;;;25.80;99.90;;;;;;5013082;28;20026;-71
2021/12/31 00:44:21;;;;;;;94.88;19.92;;;25.80;99.90;;;;;;5012911;28;20432;-70
2021/12/31 00:46:47;;;;;;;37.35;15.55;;;25.90;99.90;;;;;;5013472;28;20026;-65
2021/12/31 00:49:15;;;;;;;16.25;9.93;;;26.00;99.90;;;;;;5012425;28;20645;-69
2021/12/31 00:51:41;;;;;;;21.02;10.15;;;26.00;99.90;;;;;;5014235;28;20024;-67
2021/12/31 00:54:08;;;;;;;20.60;11.05;;;25.90;99.90;;;;;;5014582;28;20432;-68
2021/12/31 00:56:35;;;;;;;27.60;12.30;;;25.90;99.90;;;;;;5014302;28;20061;-67
2021/12/31 00:59:01;;;;;;;25.42;10.25;;;25.70;99.90;;;;;;5014513;28;20030;-68
2021/12/31 01:01:30;;;;;;;28.27;11.73;;;25.70;99.90;;;;;;5014599;28;20022;-69
2021/12/31 01:03:57;;;;;;;27.05;11.05;;;25.60;99.90;;;;;;5013848;28;20052;-70
2021/12/31 01:06:24;;;;;;;467.75;340.77;;;25.60;99.90;;;;;;5014487;28;20026;-69
2021/12/31 01:08:50;;;;;;;34.60;15.55;;;25.60;99.90;;;;;;5014425;28;20029;-69
2021/12/31 01:11:17;;;;;;;20.70;9.00;;;25.60;99.90;;;;;;5014205;28;20498;-71
2021/12/31 01:13:57;;;;;;;12.98;6.65;;;25.40;99.90;;;;;;5014195;28;20037;-70
2021/12/31 01:16:34;;;;;;;12.15;6.63;;;25.20;99.90;;;;;;5014090;28;20104;-69
2021/12/31 01:21:30;;;;;;;45.40;11.38;;;24.70;99.90;;;;;;5013954;28;20029;-70
2021/12/31 01:23:58;;;;;;;26.38;6.47;;;24.50;99.90;;;;;;5013471;28;20025;-72
2021/12/31 01:26:25;;;;;;;16.42;5.75;;;24.50;99.90;;;;;;5013109;28;20030;-69
2021/12/31 01:28:52;;;;;;;16.67;7.22;;;24.50;99.90;;;;;;5013595;28;20030;-71
2021/12/31 01:31:21;;;;;;;34.40;12.65;;;24.50;99.90;;;;;;5013793;28;20026;-69
2021/12/31 01:33:47;;;;;;;31.55;12.20;;;24.60;99.90;;;;;;5013605;28;20018;-69
2021/12/31 01:36:14;;;;;;;13.23;6.75;;;24.70;99.90;;;;;;5013941;28;20021;-69
2021/12/31 01:38:41;;;;;;;20.83;6.85;;;24.80;99.90;;;;;;5010954;28;20096;-70
2021/12/31 01:41:07;;;;;;;3.53;1.92;;;24.90;99.90;;;;;;5013520;28;20030;-70
2021/12/31 01:43:34;;;;;;;4.93;2.25;;;24.70;99.90;;;;;;5013278;28;20397;-70
2021/12/31 01:46:10;;;;;;;11.20;6.50;;;24.80;99.90;;;;;;5012843;28;20500;-69
2021/12/31 01:48:59;;;;;;;18.73;9.20;;;24.80;99.90;;;;;;5013226;28;20033;-69
2021/12/31 01:51:25;;;;;;;120.43;82.57;;;24.80;99.90;;;;;;5012896;28;20568;-70
2021/12/31 01:53:51;;;;;;;8.02;4.03;;;24.80;99.90;;;;;;5011287;28;20033;-70
2021/12/31 01:56:20;;;;;;;9.32;3.58;;;24.80;99.90;;;;;;5013803;28;20030;-70
2021/12/31 01:58:54;;;;;;;5.32;2.00;;;24.70;99.90;;;;;;5012162;28;20022;-69
2021/12/31 02:01:22;;;;;;;10.02;5.45;;;24.60;99.90;;;;;;5011294;28;20508;-69
2021/12/31 02:03:51;;;;;;;9.38;4.20;;;24.40;99.90;;;;;;5012250;28;20030;-69
2021/12/31 02:06:18;;;;;;;5.47;1.92;;;24.30;99.90;;;;;;5010770;28;20049;-70
2021/12/31 02:08:45;;;;;;;10.80;4.63;;;24.10;99.90;;;;;;5012232;28;20052;-71
2021/12/31 02:11:12;;;;;;;9.00;3.80;;;24.00;99.90;;;;;;5012516;28;20030;-69
2021/12/31 02:13:39;;;;;;;3.47;1.90;;;24.10;99.90;;;;;;5012884;28;20104;-70
2021/12/31 02:16:06;;;;;;;6.30;2.13;;;24.00;99.90;;;;;;5012686;28;20034;-70
2021/12/31 02:18:33;;;;;;;5.35;2.55;;;24.00;99.90;;;;;;5013006;28;20518;-69
2021/12/31 02:21:02;;;;;;;12.35;3.75;;;24.00;99.90;;;;;;5012646;28;20467;-70
2021/12/31 02:23:39;;;;;;;5.70;2.90;;;24.10;99.90;;;;;;5012724;28;20030;-69
2021/12/31 02:26:09;;;;;;;3.38;1.58;;;24.10;99.90;;;;;;5011468;28;20183;-70
2021/12/31 02:28:37;;;;;;;6.40;2.38;;;24.10;99.90;;;;;;5012116;28;20037;-69
2021/12/31 02:31:04;;;;;;;6.78;2.60;;;24.30;99.90;;;;;;5012123;28;20026;-70
2021/12/31 02:33:32;;;;;;;28.25;21.23;;;24.50;99.90;;;;;;5012460;28;20026;-75
2021/12/31 02:36:02;;;;;;;15.27;6.97;;;24.50;99.90;;;;;;5012651;28;20032;-69
2021/12/31 02:38:29;;;;;;;11.30;6.03;;;24.50;99.90;;;;;;5011954;28;20029;-70
2021/12/31 02:40:56;;;;;;;31.00;18.40;;;24.60;99.90;;;;;;5012549;28;20068;-68
2021/12/31 02:43:22;;;;;;;13.57;6.63;;;24.60;99.90;;;;;;5012475;28;20038;-70
2021/12/31 02:45:49;;;;;;;11.63;3.83;;;24.60;99.90;;;;;;5012255;28;20056;-70
2021/12/31 02:48:25;;;;;;;12.98;2.83;;;24.60;99.90;;;;;;5012255;28;20029;-69
2021/12/31 02:50:55;;;;;;;11.25;3.05;;;24.40;99.90;;;;;;5012257;28;20065;-68
2021/12/31 02:53:32;;;;;;;12.57;3.00;;;24.40;99.90;;;;;;5012566;28;20026;-68
2021/12/31 02:56:10;;;;;;;7.32;3.38;;;24.30;99.90;;;;;;5012145;28;20367;-72
2021/12/31 02:58:38;;;;;;;13.70;4.55;;;24.30;99.90;;;;;;5011805;28;20029;-76
2021/12/31 03:01:07;;;;;;;9.25;4.28;;;24.40;99.90;;;;;;5012209;28;20029;-71
2021/12/31 03:03:37;;;;;;;9.50;4.38;;;24.40;99.90;;;;;;5011090;28;20529;-69
2021/12/31 03:06:04;;;;;;;7.95;4.18;;;24.40;99.90;;;;;;5012233;28;20038;-72
2021/12/31 03:08:35;;;;;;;11.00;3.42;;;24.40;99.90;;;;;;5015675;28;20030;-70
2021/12/31 03:11:04;;;;;;;9.02;2.70;;;24.50;99.90;;;;;;5015550;28;20030;-68
2021/12/31 03:13:32;;;;;;;4.45;2.17;;;24.50;99.90;;;;;;5014609;28;20029;-70
2021/12/31 03:16:00;;;;;;;5.80;2.67;;;24.50;99.90;;;;;;5015206;28;20422;-74
2021/12/31 03:18:28;;;;;;;5.90;2.90;;;24.40;99.90;;;;;;5014779;28;20029;-71
2021/12/31 03:21:05;;;;;;;6.63;3.33;;;24.50;99.90;;;;;;5013609;28;20383;-73
2021/12/31 03:23:32;;;;;;;5.07;3.45;;;24.60;99.90;;;;;;5014258;28;20113;-73
2021/12/31 03:26:00;;;;;;;7.00;2.90;;;24.80;99.90;;;;;;5014265;28;20037;-74
2021/12/31 03:28:27;;;;;;;4.20;2.53;;;24.70;99.90;;;;;;5013422;28;20021;-74
2021/12/31 03:30:54;;;;;;;9.57;4.10;;;24.80;99.90;;;;;;5014400;28;20038;-74
2021/12/31 03:33:21;;;;;;;5.57;2.80;;;24.80;99.90;;;;;;5014375;28;20026;-74
2021/12/31 03:35:48;;;;;;;3.88;2.45;;;24.80;99.90;;;;;;5014067;28;20040;-73
2021/12/31 03:38:15;;;;;;;3.50;2.50;;;24.80;99.90;;;;;;5012668;28;20378;-72
2021/12/31 03:40:42;;;;;;;4.60;2.78;;;24.80;99.90;;;;;;5013995;28;20010;-71
2021/12/31 03:43:09;;;;;;;4.00;2.60;;;24.80;99.90;;;;;;5014315;28;20037;-72
2021/12/31 03:45:37;;;;;;;5.22;2.88;;;24.80;99.90;;;;;;5013846;28;20483;-71
2021/12/31 03:48:04;;;;;;;7.85;2.60;;;24.80;99.90;;;;;;5014898;28;20554;-74
2021/12/31 03:50:31;;;;;;;5.80;2.97;;;24.80;99.90;;;;;;5014271;28;20038;-72
2021/12/31 03:52:57;;;;;;;4.63;2.92;;;24.90;99.90;;;;;;5014912;28;20045;-72
2021/12/31 03:55:24;;;;;;;8.38;3.63;;;24.90;99.90;;;;;;5014510;28;20030;-72
2021/12/31 03:57:51;;;;;;;6.93;3.80;;;24.80;99.90;;;;;;5014648;28;20026;-72
2021/12/31 04:00:18;;;;;;;7.00;2.95;;;25.00;99.90;;;;;;5014605;28;20017;-72
2021/12/31 04:02:45;;;;;;;7.13;3.05;;;24.90;99.90;;;;;;5013546;28;20060;-71
2021/12/31 04:05:11;;;;;;;9.30;5.05;;;24.90;99.90;;;;;;5012240;28;20057;-71
2021/12/31 04:07:38;;;;;;;10.38;3.95;;;24.90;99.90;;;;;;5013270;28;20034;-73
2021/12/31 04:10:05;;;;;;;8.05;3.55;;;24.90;99.90;;;;;;5013485;28;20383;-79
2021/12/31 04:12:32;;;;;;;4.40;3.92;;;25.00;99.90;;;;;;5012472;28;20021;-73
2021/12/31 04:14:59;;;;;;;6.53;4.45;;;24.90;99.90;;;;;;5013297;28;20034;-71
2021/12/31 04:17:25;;;;;;;7.35;3.15;;;25.00;99.90;;;;;;5012601;28;20474;-69
2021/12/31 04:19:55;;;;;;;9.35;3.92;;;25.10;99.90;;;;;;5013909;28;20026;-69
2021/12/31 04:22:24;;;;;;;11.10;3.33;;;25.20;99.90;;;;;;5013185;28;20041;-69
2021/12/31 04:24:52;;;;;;;16.40;3.95;;;25.20;99.90;;;;;;5012552;28;20028;-73
2021/12/31 04:27:21;;;;;;;9.77;3.72;;;25.20;99.90;;;;;;5012208;28;20112;-73
2021/12/31 04:29:51;;;;;;;6.72;2.83;;;25.30;99.90;;;;;;5011013;28;20018;-72
2021/12/31 04:32:23;;;;;;;9.15;3.42;;;25.40;99.90;;;;;;5012048;28;20026;-73
2021/12/31 04:34:50;;;;;;;12.25;3.78;;;25.50;99.90;;;;;;5013312;28;20026;-75
2021/12/31 04:37:17;;;;;;;16.65;4.47;;;25.60;99.90;;;;;;5010207;28;20034;-72
2021/12/31 04:39:43;;;;;;;11.05;4.45;;;25.70;99.90;;;;;;5011900;28;20114;-72
2021/12/31 04:42:10;;;;;;;8.52;3.65;;;25.80;99.90;;;;;;5012083;28;20092;-73
2021/12/31 04:44:37;;;;;;;10.55;4.18;;;25.90;99.90;;;;;;5011970;28;20424;-71
2021/12/31 04:47:04;;;;;;;5.60;3.53;;;26.00;99.90;;;;;;5012042;28;20033;-72
2021/12/31 04:49:31;;;;;;;7.75;3.92;;;26.10;99.90;;;;;;5012075;28;20026;-74
2021/12/31 04:51:58;;;;;;;4.97;3.33;;;26.20;99.90;;;;;;5010137;28;20038;-71
2021/12/31 04:54:24;;;;;;;4.10;2.78;;;26.40;99.90;;;;;;5011812;28;20481;-74
2021/12/31 04:56:53;;;;;;;10.05;5.50;;;26.40;99.90;;;;;;5010856;28;20490;-73
2021/12/31 04:59:21;;;;;;;9.02;6.65;;;26.50;99.90;;;;;;5012174;28;20061;-74
2021/12/31 05:01:49;;;;;;;14.77;6.68;;;26.60;99.90;;;;;;5012695;28;20025;-74
2021/12/31 05:04:16;;;;;;;9.02;4.10;;;26.70;99.90;;;;;;5011153;28;20076;-71
2021/12/31 05:06:43;;;;;;;5.57;3.10;;;26.80;99.90;;;;;;5011264;28;20030;-71
2021/12/31 05:09:11;;;;;;;6.03;3.30;;;26.90;99.90;;;;;;5012119;28;20168;-71
2021/12/31 05:11:37;;;;;;;6.38;3.35;;;26.90;99.90;;;;;;5013534;28;20032;-72
2021/12/31 05:14:04;;;;;;;5.50;3.65;;;26.90;99.90;;;;;;5012775;28;20021;-72
2021/12/31 05:16:32;;;;;;;8.15;3.65;;;27.00;99.90;;;;;;5013659;28;20029;-74
2021/12/31 05:18:58;;;;;;;12.40;4.00;;;27.10;99.90;;;;;;5016705;28;20030;-78
2021/12/31 05:21:25;;;;;;;10.38;3.45;;;27.10;99.90;;;;;;5012100;28;20021;-73
2021/12/31 05:23:51;;;;;;;8.57;4.72;;;27.20;99.90;;;;;;5003019;28;20022;-72
2021/12/31 05:26:18;;;;;;;8.02;3.47;;;27.20;99.90;;;;;;5010107;28;20037;-71
2021/12/31 05:28:45;;;;;;;10.60;4.28;;;27.20;99.90;;;;;;5010335;28;20037;-79
2021/12/31 05:31:12;;;;;;;9.93;4.60;;;27.30;99.90;;;;;;5011364;28;20021;-76
2021/12/31 05:33:38;;;;;;;8.48;4.53;;;27.40;99.90;;;;;;5013215;28;20433;-78
2021/12/31 05:36:05;;;;;;;15.43;5.95;;;27.40;99.90;;;;;;5013689;28;20022;-74
2021/12/31 05:38:32;;;;;;;4.45;3.85;;;27.50;99.90;;;;;;5013966;28;20029;-76
2021/12/31 05:40:59;;;;;;;3.58;3.10;;;27.50;99.90;;;;;;5013801;28;20088;-76
2021/12/31 05:43:25;;;;;;;6.15;4.72;;;27.50;99.90;;;;;;5012550;28;20022;-73
2021/12/31 05:45:52;;;;;;;4.72;3.65;;;27.40;99.90;;;;;;5012841;28;20037;-74
2021/12/31 05:48:18;;;;;;;4.75;3.50;;;27.50;99.90;;;;;;5012162;28;20038;-78
2021/12/31 05:50:45;;;;;;;5.85;4.03;;;27.60;99.90;;;;;;5012894;28;20038;-75
2021/12/31 05:53:12;;;;;;;8.82;3.97;;;27.60;99.90;;;;;;5012790;28;20380;-76
2021/12/31 05:55:38;;;;;;;8.75;5.03;;;27.70;99.90;;;;;;5013141;28;20490;-73
2021/12/31 05:58:05;;;;;;;6.22;3.80;;;27.70;99.90;;;;;;5012845;28;20025;-74
2021/12/31 06:00:32;;;;;;;4.72;3.13;;;27.80;99.90;;;;;;5012113;28;20109;-75
2021/12/31 06:02:59;;;;;;;5.22;3.67;;;27.90;99.90;;;;;;5011930;28;20030;-77
2021/12/31 06:05:27;;;;;;;5.68;3.75;;;27.80;99.90;;;;;;5013042;28;20025;-74
2021/12/31 06:07:56;;;;;;;5.85;4.65;;;27.80;99.90;;;;;;5014148;28;20026;-75
2021/12/31 06:10:24;;;;;;;6.13;4.38;;;27.90;99.90;;;;;;5014242;28;20421;-74
2021/12/31 06:12:55;;;;;;;7.03;3.78;;;28.00;99.90;;;;;;5013268;28;20022;-74
2021/12/31 06:15:25;;;;;;;6.80;4.13;;;28.00;99.90;;;;;;5013012;28;20052;-74
2021/12/31 06:17:52;;;;;;;5.05;3.78;;;28.00;99.90;;;;;;5012389;28;20471;-73
2021/12/31 06:20:18;;;;;;;9.63;4.57;;;28.00;99.90;;;;;;5013185;28;20390;-75
2021/12/31 06:22:53;;;;;;;23.95;15.27;;;27.90;99.90;;;;;;5011411;28;20491;-73
2021/12/31 06:25:20;;;;;;;9.15;5.60;;;28.00;99.90;;;;;;5010970;28;20026;-73
2021/12/31 06:27:47;;;;;;;5.05;3.60;;;27.90;99.90;;;;;;5012541;28;20021;-77
2021/12/31 06:30:15;;;;;;;5.63;3.90;;;28.00;99.90;;;;;;5010422;28;20543;-78
2021/12/31 06:32:44;;;;;;;9.25;4.35;;;27.90;99.90;;;;;;5013011;28;20081;-74
2021/12/31 06:35:18;;;;;;;5.57;3.88;;;28.00;99.90;;;;;;5012463;28;20045;-74
2021/12/31 06:37:51;;;;;;;7.18;3.65;;;28.10;99.90;;;;;;5013815;28;20033;-76
2021/12/31 06:40:19;;;;;;;6.82;4.07;;;28.10;99.90;;;;;;5010720;28;20403;-73
2021/12/31 06:42:47;;;;;;;9.93;5.22;;;28.20;99.90;;;;;;5015969;28;20026;-77
2021/12/31 06:45:15;;;;;;;6.47;5.07;;;28.20;99.90;;;;;;5018525;28;20022;-73
2021/12/31 06:47:42;;;;;;;5.85;4.35;;;28.20;99.90;;;;;;5026463;28;20030;-75
2021/12/31 06:50:10;;;;;;;10.85;5.60;;;28.30;99.90;;;;;;5015397;28;20121;-74
2021/12/31 06:52:39;;;;;;;9.20;5.55;;;28.40;99.90;;;;;;5015897;28;20045;-73
2021/12/31 06:55:09;;;;;;;10.43;6.00;;;28.40;99.90;;;;;;5014379;28;20036;-73
2021/12/31 06:57:37;;;;;;;9.52;5.70;;;28.40;99.90;;;;;;5016116;28;20340;-76
2021/12/31 07:00:06;;;;;;;15.63;11.68;;;28.50;99.90;;;;;;5016154;28;20117;-75
2021/12/31 07:02:39;;;;;;;7.05;4.75;;;28.40;99.90;;;;;;5016291;28;20549;-73
2021/12/31 07:05:07;;;;;;;9.50;7.60;;;28.50;99.90;;;;;;5015917;28;20437;-72
2021/12/31 07:07:33;;;;;;;15.40;5.85;;;28.50;99.90;;;;;;5020244;28;20112;-72
2021/12/31 07:10:00;;;;;;;14.25;6.25;;;28.60;99.90;;;;;;5017988;28;20494;-72
2021/12/31 07:12:26;;;;;;;10.60;5.85;;;28.60;99.90;;;;;;5019493;28;20506;-74
2021/12/31 07:14:53;;;;;;;7.03;4.97;;;28.60;99.90;;;;;;5017752;28;20041;-73
2021/12/31 07:17:20;;;;;;;114.68;88.93;;;28.60;99.90;;;;;;5002518;28;20054;-74
2021/12/31 07:19:46;;;;;;;23.08;6.43;;;28.60;99.90;;;;;;5014664;28;20073;-72
2021/12/31 07:22:14;;;;;;;16.67;6.90;;;28.70;99.90;;;;;;5015972;28;20029;-73
2021/12/31 07:24:40;;;;;;;12.75;6.35;;;28.70;99.90;;;;;;5016838;28;20038;-73
2021/12/31 07:27:07;;;;;;;9.40;6.40;;;28.70;99.90;;;;;;5015676;28;20025;-71
2021/12/31 07:29:34;;;;;;;12.75;6.15;;;28.70;99.90;;;;;;5015339;28;20076;-72
2021/12/31 07:32:01;;;;;;;9.38;6.30;;;28.70;99.90;;;;;;5015667;28;20418;-74
2021/12/31 07:34:27;;;;;;;15.15;5.60;;;28.60;99.90;;;;;;5019409;28;20022;-74
2021/12/31 07:36:54;;;;;;;5.95;5.03;;;28.60;99.90;;;;;;5016825;28;20493;-74
2021/12/31 07:39:24;;;;;;;8.13;5.95;;;28.60;99.90;;;;;;5018051;28;20091;-72
2021/12/31 07:41:51;;;;;;;7.65;5.30;;;28.60;99.90;;;;;;5016217;28;20037;-73
2021/12/31 07:44:17;;;;;;;12.43;5.03;;;28.60;99.90;;;;;;5015748;28;20025;-77
2021/12/31 07:46:46;;;;;;;13.68;5.78;;;28.70;99.90;;;;;;5013122;28;20172;-75
2021/12/31 07:49:12;;;;;;;7.22;5.65;;;28.70;99.90;;;;;;5002472;28;20045;-73
2021/12/31 07:51:39;;;;;;;9.55;5.20;;;28.70;99.90;;;;;;5007543;28;20033;-72
2021/12/31 07:54:06;;;;;;;7.38;5.22;;;28.80;99.90;;;;;;5011073;28;20117;-73
2021/12/31 07:56:33;;;;;;;7.63;5.32;;;28.90;99.90;;;;;;5015523;28;20033;-76
2021/12/31 07:58:59;;;;;;;13.95;5.38;;;28.90;99.90;;;;;;5016820;28;20021;-72
2021/12/31 08:01:26;;;;;;;5.72;4.70;;;29.00;99.90;;;;;;5016768;28;20234;-73
2021/12/31 08:03:53;;;;;;;11.90;6.20;;;28.90;99.90;;;;;;5014296;28;20034;-74
2021/12/31 08:06:19;;;;;;;9.30;6.80;;;28.80;99.90;;;;;;5014667;28;20060;-73
2021/12/31 08:08:46;;;;;;;6.60;5.32;;;28.80;99.90;;;;;;5013734;28;20053;-73
2021/12/31 08:11:13;;;;;;;10.77;7.00;;;28.80;99.90;;;;;;5015679;28;20101;-71
2021/12/31 08:13:39;;;;;;;19.23;9.20;;;28.80;99.90;;;;;;5015683;28;20079;-78
2021/12/31 08:16:06;;;;;;;18.80;9.43;;;28.80;99.90;;;;;;5015415;28;20034;-72
2021/12/31 08:18:33;;;;;;;12.00;7.75;;;28.90;99.90;;;;;;5018139;28;20029;-73
2021/12/31 08:20:59;;;;;;;17.80;8.63;;;28.90;99.90;;;;;;5014564;28;20033;-72
2021/12/31 08:23:26;;;;;;;13.32;7.38;;;28.90;99.90;;;;;;5014797;28;20030;-73
2021/12/31 08:25:52;;;;;;;9.18;7.20;;;29.10;99.90;;;;;;5014677;28;20080;-72
2021/12/31 08:28:19;;;;;;;18.45;7.90;;;29.10;99.90;;;;;;5015609;28;20030;-74
2021/12/31 08:30:46;;;;;;;130.95;114.20;;;29.00;99.90;;;;;;5014147;28;20026;-71
2021/12/31 08:33:13;;;;;;;14.95;9.88;;;29.00;99.90;;;;;;5014197;28;20159;-72
2021/12/31 08:35:39;;;;;;;11.07;8.30;;;29.10;99.90;;;;;;5014566;28;20495;-71
2021/12/31 08:38:06;;;;;;;21.05;13.75;;;29.00;99.90;;;;;;5015012;28;20056;-72
2021/12/31 08:40:33;;;;;;;16.65;12.38;;;29.10;99.90;;;;;;5014690;28;20038;-70
2021/12/31 08:43:00;;;;;;;56.45;50.20;;;29.20;99.90;;;;;;5014987;28;20056;-71
2021/12/31 08:45:29;;;;;;;16.88;13.07;;;29.20;99.90;;;;;;5013973;28;20030;-72
2021/12/31 08:47:58;;;;;;;13.57;11.32;;;29.30;99.90;;;;;;5014163;28;20018;-71
2021/12/31 08:50:25;;;;;;;21.95;15.50;;;29.20;99.90;;;;;;5012187;28;20045;-70
2021/12/31 08:52:52;;;;;;;13.50;9.45;;;29.20;99.90;;;;;;5011805;28;20034;-71
2021/12/31 08:55:19;;;;;;;24.50;12.93;;;29.10;99.90;;;;;;5013531;28;20022;-73
2021/12/31 08:57:45;;;;;;;11.57;9.07;;;29.00;99.90;;;;;;5014492;28;20022;-72
2021/12/31 09:00:12;;;;;;;15.98;9.32;;;28.90;99.90;;;;;;5014169;28;20041;-72
2021/12/31 09:02:40;;;;;;;15.70;9.55;;;28.90;99.90;;;;;;5013321;28;20061;-69
2021/12/31 09:05:07;;;;;;;12.02;9.68;;;28.90;99.90;;;;;;5014362;28;20049;-73
2021/12/31 09:07:35;;;;;;;41.42;25.17;;;28.80;99.90;;;;;;5012243;28;20413;-71
2021/12/31 09:10:02;;;;;;;21.15;17.05;;;28.90;99.90;;;;;;5020061;28;20041;-73
2021/12/31 09:12:28;;;;;;;21.83;14.57;;;29.00;99.90;;;;;;5007820;28;20029;-72
2021/12/31 09:14:55;;;;;;;22.35;15.85;;;29.00;99.90;;;;;;5011372;28;20030;-73
2021/12/31 09:17:22;;;;;;;26.02;15.43;;;29.00;99.90;;;;;;5011338;28;20026;-72
2021/12/31 09:19:50;;;;;;;31.65;14.40;;;28.90;99.90;;;;;;5012661;28;20041;-74
2021/12/31 09:22:17;;;;;;;19.10;12.95;;;28.90;99.90;;;;;;5013558;28;20026;-72
2021/12/31 09:24:44;;;;;;;19.45;12.90;;;28.80;99.90;;;;;;5011811;28;20471;-73
2021/12/31 09:27:11;;;;;;;36.00;21.77;;;28.80;99.90;;;;;;5013765;28;20174;-73
2021/12/31 09:29:37;;;;;;;33.95;25.48;;;28.80;99.90;;;;;;5012448;28;20058;-74
2021/12/31 09:32:05;;;;;;;36.75;23.80;;;28.80;99.90;;;;;;5012800;28;20025;-74
2021/12/31 09:34:31;;;;;;;48.35;30.80;;;28.90;99.90;;;;;;5013187;28;20572;-75
2021/12/31 09:36:58;;;;;;;29.65;18.88;;;28.80;99.90;;;;;;5011267;28;20119;-74
2021/12/31 09:39:25;;;;;;;18.55;12.02;;;28.80;99.90;;;;;;5011283;28;20372;-75
2021/12/31 09:41:51;;;;;;;27.65;19.00;;;28.70;99.90;;;;;;5013457;28;20026;-73
2021/12/31 09:44:21;;;;;;;21.02;12.05;;;28.60;99.90;;;;;;5013702;28;20074;-74
2021/12/31 09:46:48;;;;;;;21.63;12.35;;;28.50;99.90;;;;;;5014218;28;20422;-75
2021/12/31 09:49:14;;;;;;;19.92;14.77;;;28.50;99.90;;;;;;5012598;28;20045;-72
2021/12/31 09:51:42;;;;;;;25.35;16.58;;;28.50;99.90;;;;;;5013334;28;20471;-73
2021/12/31 09:54:10;;;;;;;32.40;21.30;;;28.50;99.90;;;;;;5013066;28;20502;-73
2021/12/31 09:56:40;;;;;;;39.60;28.10;;;28.50;99.90;;;;;;5013338;28;20033;-73
2021/12/31 09:59:08;;;;;;;36.80;24.23;;;28.70;99.90;;;;;;5013325;28;20156;-73
2021/12/31 10:01:45;;;;;;;42.22;22.83;;;28.70;99.90;;;;;;5013959;28;20438;-73
2021/12/31 10:04:11;;;;;;;47.28;24.38;;;28.80;99.90;;;;;;5012356;28;20374;-73
2021/12/31 10:06:38;;;;;;;40.10;22.52;;;28.80;99.90;;;;;;5007409;28;20391;-75
2021/12/31 10:09:05;;;;;;;34.22;20.17;;;28.80;99.90;;;;;;5002311;28;20037;-75
2021/12/31 10:11:32;;;;;;;32.05;18.30;;;28.70;99.90;;;;;;5008820;28;20033;-75
2021/12/31 10:14:00;;;;;;;30.80;17.45;;;28.70;99.90;;;;;;5005929;28;20034;-75
2021/12/31 10:16:33;;;;;;;41.17;22.80;;;28.60;99.90;;;;;;5012350;28;20107;-73
2021/12/31 10:19:11;;;;;;;80.00;49.53;;;28.60;99.90;;;;;;5008365;28;20018;-73
2021/12/31 10:21:41;;;;;;;84.60;38.40;;;28.70;99.90;;;;;;5012518;28;20028;-74
2021/12/31 10:24:23;;;;;;;85.10;48.28;;;28.70;99.90;;;;;;5012851;28;20026;-74
2021/12/31 10:26:51;;;;;;;52.35;29.90;;;28.70;99.90;;;;;;5016262;28;20030;-75
2021/12/31 10:29:18;;;;;;;37.35;23.10;;;28.80;99.90;;;;;;5012983;28;20042;-76
2021/12/31 10:31:48;;;;;;;35.45;18.30;;;28.70;99.90;;;;;;5014424;28;20110;-73
2021/12/31 10:34:32;;;;;;;22.95;16.27;;;28.60;99.90;;;;;;5013597;28;20042;-74
2021/12/31 10:37:12;;;;;;;16.85;10.82;;;28.40;99.90;;;;;;5013248;28;20111;-72
2021/12/31 10:39:39;;;;;;;15.60;11.60;;;28.20;99.90;;;;;;5013379;28;20467;-73
2021/12/31 10:42:11;;;;;;;17.48;10.65;;;27.90;99.90;;;;;;5012436;28;20113;-74
2021/12/31 10:44:49;;;;;;;17.10;11.13;;;27.70;99.90;;;;;;5012711;28;20025;-76
2021/12/31 10:47:29;;;;;;;21.20;11.85;;;27.50;99.90;;;;;;5011645;28;20089;-73
2021/12/31 10:50:00;;;;;;;16.50;10.98;;;27.70;99.90;;;;;;5013273;28;20058;-71
2021/12/31 10:52:35;;;;;;;17.58;13.50;;;27.70;99.90;;;;;;5010732;28;20030;-72
2021/12/31 10:55:14;;;;;;;24.10;12.40;;;27.60;99.90;;;;;;5011640;28;20018;-70
2021/12/31 10:57:41;;;;;;;22.48;11.90;;;27.40;99.90;;;;;;5013292;28;20152;-72
2021/12/31 11:00:10;;;;;;;18.30;11.13;;;27.30;99.90;;;;;;5011677;28;20022;-73
2021/12/31 11:02:38;;;;;;;16.85;11.60;;;27.30;99.90;;;;;;5012659;28;20496;-70
2021/12/31 11:05:07;;;;;;;18.75;11.43;;;27.20;99.90;;;;;;5012745;28;20034;-72
2021/12/31 11:07:34;;;;;;;22.17;12.23;;;27.20;99.90;;;;;;5013764;28;20033;-73
2021/12/31 11:10:04;;;;;;;25.90;14.07;;;27.20;99.90;;;;;;5015280;28;20040;-73
2021/12/31 11:12:31;;;;;;;21.95;13.60;;;27.20;99.90;;;;;;5011930;28;20034;-75
2021/12/31 11:14:58;;;;;;;15.48;10.13;;;27.10;99.90;;;;;;5014616;28;20028;-74
2021/12/31 11:17:25;;;;;;;14.32;9.48;;;26.90;99.90;;;;;;5012264;28;20014;-71
2021/12/31 11:19:53;;;;;;;11.60;8.65;;;27.00;99.90;;;;;;5010925;28;20741;-71
2021/12/31 11:22:24;;;;;;;13.52;9.63;;;27.00;99.90;;;;;;5013018;28;20026;-69
2021/12/31 11:24:51;;;;;;;12.70;9.47;;;27.00;99.90;;;;;;5011091;28;20101;-73
2021/12/31 11:27:31;;;;;;;14.02;9.20;;;26.90;99.90;;;;;;5016851;28;20291;-72
2021/12/31 11:29:59;;;;;;;13.90;10.52;;;26.80;99.90;;;;;;5017517;28;20072;-71
2021/12/31 11:32:49;;;;;;;19.73;11.40;;;26.90;99.90;;;;;;5013552;28;20053;-73
2021/12/31 11:35:35;;;;;;;19.08;15.38;;;27.00;99.90;;;;;;5016400;28;20025;-73
2021/12/31 11:38:06;;;;;;;25.02;19.17;;;27.00;99.90;;;;;;5014893;28;20512;-71
2021/12/31 11:40:37;;;;;;;16.65;12.85;;;27.10;99.90;;;;;;5015027;28;20092;-73
2021/12/31 11:43:17;;;;;;;45.10;24.05;;;27.00;99.90;;;;;;5014537;28;20387;-71
2021/12/31 11:45:43;;;;;;;154.07;88.13;;;27.00;99.90;;;;;;5015896;28;20022;-71
2021/12/31 11:48:41;;;;;;;140.60;71.88;;;27.00;99.90;;;;;;5017201;28;20054;-73
2021/12/31 11:51:09;;;;;;;176.93;86.30;;;27.00;99.90;;;;;;5014910;28;20088;-72
2021/12/31 11:53:57;;;;;;;210.75;119.88;;;26.90;99.90;;;;;;5015981;28;20068;-71
2021/12/31 11:56:40;;;;;;;137.90;82.85;;;26.90;99.90;;;;;;5013745;28;20057;-73
2021/12/31 11:59:10;;;;;;;109.05;73.00;;;26.90;99.90;;;;;;5018386;28;20017;-73
2021/12/31 12:01:47;;;;;;;125.82;86.57;;;26.90;99.90;;;;;;5018361;28;20018;-74
2021/12/31 12:04:26;;;;;;;70.72;50.90;;;26.90;99.90;;;;;;5015981;28;20117;-73
2021/12/31 12:07:04;;;;;;;71.25;54.28;;;26.90;99.90;;;;;;5015877;28;20033;-74
2021/12/31 12:09:37;;;;;;;62.33;44.65;;;26.90;99.90;;;;;;5018797;28;20410;-72
2021/12/31 12:12:06;;;;;;;45.65;32.55;;;26.90;99.90;;;;;;5015454;28;20056;-72
2021/12/31 12:14:45;;;;;;;40.38;31.67;;;26.90;99.90;;;;;;5015539;28;20487;-71
2021/12/31 12:17:14;;;;;;;53.47;37.60;;;26.90;99.90;;;;;;5018557;28;20037;-70
2021/12/31 12:20:05;;;;;;;55.97;36.83;;;26.90;99.90;;;;;;5018376;28;20033;-72
2021/12/31 12:22:37;;;;;;;91.72;72.78;;;26.80;99.90;;;;;;5014428;28;20076;-73
2021/12/31 12:25:05;;;;;;;85.55;54.50;;;26.80;99.90;;;;;;5017044;28;20040;-71
2021/12/31 12:27:33;;;;;;;79.60;48.00;;;26.90;99.90;;;;;;5015473;28;20032;-72
2021/12/31 12:30:03;;;;;;;99.38;58.42;;;26.90;99.90;;;;;;5017417;28;20030;-71
2021/12/31 12:32:35;;;;;;;88.05;61.15;;;26.90;99.90;;;;;;5015763;28;20045;-74
2021/12/31 12:35:21;;;;;;;91.60;58.47;;;26.90;99.90;;;;;;5014035;28;20386;-74
2021/12/31 12:38:00;;;;;;;94.20;65.55;;;26.90;99.90;;;;;;5013468;28;20026;-70
2021/12/31 12:40:44;;;;;;;87.50;60.20;;;26.90;99.90;;;;;;5012996;28;20022;-73
2021/12/31 12:43:29;;;;;;;63.97;48.70;;;26.90;99.90;;;;;;5014398;28;20030;-71
2021/12/31 12:46:06;;;;;;;60.75;45.10;;;26.90;99.90;;;;;;5014970;28;20021;-72
2021/12/31 12:48:36;;;;;;;67.60;48.63;;;26.90;99.90;;;;;;5014431;28;20034;-72